sensor_id;sensor_type;location;lat;lon;timestamp;temperature;humidity
62581;DHT22;48640;48.770;9.148;2023-07-31T00:00:09;16.80;90.50
62581;DHT22;48640;48.770;9.148;2023-07-31T00:02:36;16.70;90.60
62581;DHT22;48640;48.770;9.148;2023-07-31T00:05:03;16.60;90.70
62581;DHT22;48640;48.770;9.148;2023-07-31T00:07:32;16.60;90.80
62581;DHT22;48640;48.770;9.148;2023-07-31T00:09:59;16.60;90.90
62581;DHT22;48640;48.770;9.148;2023-07-31T00:12:26;16.60;91.00
62581;DHT22;48640;48.770;9.148;2023-07-31T00:14:52;16.70;91.10
62581;DHT22;48640;48.770;9.148;2023-07-31T00:17:19;16.70;91.20
62581;DHT22;48640;48.770;9.148;2023-07-31T00:19:46;16.60;91.40
62581;DHT22;48640;48.770;9.148;2023-07-31T00:22:16;16.60;91.50
62581;DHT22;48640;48.770;9.148;2023-07-31T00:24:44;16.60;91.60
62581;DHT22;48640;48.770;9.148;2023-07-31T00:27:11;16.50;91.70
62581;DHT22;48640;48.770;9.148;2023-07-31T00:29:37;16.50;91.80
62581;DHT22;48640;48.770;9.148;2023-07-31T00:32:05;16.50;91.80
62581;DHT22;48640;48.770;9.148;2023-07-31T00:34:32;16.50;92.00
62581;DHT22;48640;48.770;9.148;2023-07-31T00:36:59;16.40;92.10
62581;DHT22;48640;48.770;9.148;2023-07-31T00:39:26;16.40;92.30
62581;DHT22;48640;48.770;9.148;2023-07-31T00:41:54;16.40;92.40
62581;DHT22;48640;48.770;9.148;2023-07-31T00:44:21;16.30;92.30
62581;DHT22;48640;48.770;9.148;2023-07-31T00:46:48;16.20;92.60
62581;DHT22;48640;48.770;9.148;2023-07-31T00:49:15;16.30;92.90
62581;DHT22;48640;48.770;9.148;2023-07-31T00:51:42;16.30;93.00
62581;DHT22;48640;48.770;9.148;2023-07-31T00:54:09;16.20;93.10
62581;DHT22;48640;48.770;9.148;2023-07-31T00:56:38;16.20;93.30
62581;DHT22;48640;48.770;9.148;2023-07-31T00:59:06;16.20;93.50
62581;DHT22;48640;48.770;9.148;2023-07-31T01:01:33;16.10;93.50
62581;DHT22;48640;48.770;9.148;2023-07-31T01:04:00;16.10;93.70
62581;DHT22;48640;48.770;9.148;2023-07-31T01:06:33;16.00;93.70
62581;DHT22;48640;48.770;9.148;2023-07-31T01:09:04;16.00;94.10
62581;DHT22;48640;48.770;9.148;2023-07-31T01:11:38;16.00;94.30
62581;DHT22;48640;48.770;9.148;2023-07-31T01:14:09;15.90;94.20
62581;DHT22;48640;48.770;9.148;2023-07-31T01:16:36;15.90;94.30
62581;DHT22;48640;48.770;9.148;2023-07-31T01:19:03;15.80;94.50
62581;DHT22;48640;48.770;9.148;2023-07-31T01:21:48;15.90;94.60
62581;DHT22;48640;48.770;9.148;2023-07-31T01:24:23;15.90;94.60
62581;DHT22;48640;48.770;9.148;2023-07-31T01:27:00;16.00;94.60
62581;DHT22;48640;48.770;9.148;2023-07-31T01:29:36;16.00;94.50
62581;DHT22;48640;48.770;9.148;2023-07-31T01:32:06;16.00;94.60
62581;DHT22;48640;48.770;9.148;2023-07-31T01:34:35;16.00;94.70
62581;DHT22;48640;48.770;9.148;2023-07-31T01:37:02;16.00;95.10
62581;DHT22;48640;48.770;9.148;2023-07-31T01:39:29;16.00;94.80
62581;DHT22;48640;48.770;9.148;2023-07-31T01:41:57;15.90;94.80
62581;DHT22;48640;48.770;9.148;2023-07-31T01:44:24;16.00;94.90
62581;DHT22;48640;48.770;9.148;2023-07-31T01:46:50;15.90;94.70
62581;DHT22;48640;48.770;9.148;2023-07-31T01:49:17;16.00;94.80
62581;DHT22;48640;48.770;9.148;2023-07-31T01:51:44;16.00;94.80
62581;DHT22;48640;48.770;9.148;2023-07-31T01:54:11;16.00;94.80
62581;DHT22;48640;48.770;9.148;2023-07-31T01:56:37;16.00;94.80
62581;DHT22;48640;48.770;9.148;2023-07-31T01:59:06;16.00;94.80
62581;DHT22;48640;48.770;9.148;2023-07-31T02:01:32;16.00;94.80
62581;DHT22;48640;48.770;9.148;2023-07-31T02:03:59;16.00;94.70
62581;DHT22;48640;48.770;9.148;2023-07-31T02:06:27;16.10;94.80
62581;DHT22;48640;48.770;9.148;2023-07-31T02:08:53;16.10;94.70
62581;DHT22;48640;48.770;9.148;2023-07-31T02:11:20;16.10;94.70
62581;DHT22;48640;48.770;9.148;2023-07-31T02:13:47;16.00;94.90
62581;DHT22;48640;48.770;9.148;2023-07-31T02:16:15;16.00;95.00
62581;DHT22;48640;48.770;9.148;2023-07-31T02:18:42;16.00;95.00
62581;DHT22;48640;48.770;9.148;2023-07-31T02:21:09;16.10;95.10
62581;DHT22;48640;48.770;9.148;2023-07-31T02:23:35;15.90;95.20
62581;DHT22;48640;48.770;9.148;2023-07-31T02:26:02;15.90;95.30
62581;DHT22;48640;48.770;9.148;2023-07-31T02:28:29;15.90;95.30
62581;DHT22;48640;48.770;9.148;2023-07-31T02:30:58;15.90;95.30
62581;DHT22;48640;48.770;9.148;2023-07-31T02:33:27;15.90;95.20
62581;DHT22;48640;48.770;9.148;2023-07-31T02:35:53;15.90;95.20
62581;DHT22;48640;48.770;9.148;2023-07-31T02:38:20;15.90;95.20
62581;DHT22;48640;48.770;9.148;2023-07-31T02:40:47;15.90;95.30
62581;DHT22;48640;48.770;9.148;2023-07-31T02:43:14;15.80;95.30
62581;DHT22;48640;48.770;9.148;2023-07-31T02:45:41;15.80;95.40
62581;DHT22;48640;48.770;9.148;2023-07-31T02:48:08;15.80;95.50
62581;DHT22;48640;48.770;9.148;2023-07-31T02:50:36;15.80;95.70
62581;DHT22;48640;48.770;9.148;2023-07-31T02:53:03;15.80;95.50
62581;DHT22;48640;48.770;9.148;2023-07-31T02:55:30;15.80;95.50
62581;DHT22;48640;48.770;9.148;2023-07-31T02:57:56;15.80;95.70
62581;DHT22;48640;48.770;9.148;2023-07-31T03:00:24;15.80;95.60
62581;DHT22;48640;48.770;9.148;2023-07-31T03:02:51;15.70;95.70
62581;DHT22;48640;48.770;9.148;2023-07-31T03:05:18;15.60;95.70
62581;DHT22;48640;48.770;9.148;2023-07-31T03:07:46;15.60;95.70
62581;DHT22;48640;48.770;9.148;2023-07-31T03:10:12;15.60;95.80
62581;DHT22;48640;48.770;9.148;2023-07-31T03:12:40;15.60;95.70
62581;DHT22;48640;48.770;9.148;2023-07-31T03:15:08;15.50;95.80
62581;DHT22;48640;48.770;9.148;2023-07-31T03:17:35;15.50;95.90
62581;DHT22;48640;48.770;9.148;2023-07-31T03:20:01;15.60;95.90
62581;DHT22;48640;48.770;9.148;2023-07-31T03:22:28;15.60;95.80
62581;DHT22;48640;48.770;9.148;2023-07-31T03:24:57;15.70;95.60
62581;DHT22;48640;48.770;9.148;2023-07-31T03:27:24;15.70;95.50
62581;DHT22;48640;48.770;9.148;2023-07-31T03:29:51;15.70;95.30
62581;DHT22;48640;48.770;9.148;2023-07-31T03:32:17;15.80;95.10
62581;DHT22;48640;48.770;9.148;2023-07-31T03:34:44;15.90;94.90
62581;DHT22;48640;48.770;9.148;2023-07-31T03:37:11;15.80;94.80
62581;DHT22;48640;48.770;9.148;2023-07-31T03:39:38;15.80;94.80
62581;DHT22;48640;48.770;9.148;2023-07-31T03:42:06;15.80;94.70
62581;DHT22;48640;48.770;9.148;2023-07-31T03:44:33;15.90;94.70
62581;DHT22;48640;48.770;9.148;2023-07-31T03:47:00;15.90;94.60
62581;DHT22;48640;48.770;9.148;2023-07-31T03:49:27;15.90;94.50
62581;DHT22;48640;48.770;9.148;2023-07-31T03:51:54;15.90;94.30
62581;DHT22;48640;48.770;9.148;2023-07-31T03:54:20;16.00;94.20
62581;DHT22;48640;48.770;9.148;2023-07-31T03:56:47;16.10;94.20
62581;DHT22;48640;48.770;9.148;2023-07-31T03:59:15;16.00;94.20
62581;DHT22;48640;48.770;9.148;2023-07-31T04:01:42;16.00;94.00
62581;DHT22;48640;48.770;9.148;2023-07-31T04:04:09;16.10;93.80
62581;DHT22;48640;48.770;9.148;2023-07-31T04:06:36;16.20;93.50
62581;DHT22;48640;48.770;9.148;2023-07-31T04:09:03;16.20;93.40
62581;DHT22;48640;48.770;9.148;2023-07-31T04:11:29;16.30;93.10
62581;DHT22;48640;48.770;9.148;2023-07-31T04:13:56;16.40;93.00
62581;DHT22;48640;48.770;9.148;2023-07-31T04:16:24;16.50;92.80
62581;DHT22;48640;48.770;9.148;2023-07-31T04:18:51;16.60;92.70
62581;DHT22;48640;48.770;9.148;2023-07-31T04:21:18;16.60;92.40
62581;DHT22;48640;48.770;9.148;2023-07-31T04:23:45;16.60;92.50
62581;DHT22;48640;48.770;9.148;2023-07-31T04:26:11;16.70;92.40
62581;DHT22;48640;48.770;9.148;2023-07-31T04:28:38;16.60;92.40
62581;DHT22;48640;48.770;9.148;2023-07-31T04:31:05;16.70;92.30
62581;DHT22;48640;48.770;9.148;2023-07-31T04:33:34;16.80;92.20
62581;DHT22;48640;48.770;9.148;2023-07-31T04:36:00;16.80;92.20
62581;DHT22;48640;48.770;9.148;2023-07-31T04:38:27;16.90;92.20
62581;DHT22;48640;48.770;9.148;2023-07-31T04:40:54;16.90;92.10
62581;DHT22;48640;48.770;9.148;2023-07-31T04:43:21;16.90;92.30
62581;DHT22;48640;48.770;9.148;2023-07-31T04:45:48;16.90;92.20
62581;DHT22;48640;48.770;9.148;2023-07-31T04:48:15;17.00;92.00
62581;DHT22;48640;48.770;9.148;2023-07-31T04:50:43;17.10;92.00
62581;DHT22;48640;48.770;9.148;2023-07-31T04:53:10;17.10;91.90
62581;DHT22;48640;48.770;9.148;2023-07-31T04:55:37;17.10;92.00
62581;DHT22;48640;48.770;9.148;2023-07-31T04:58:05;17.10;91.90
62581;DHT22;48640;48.770;9.148;2023-07-31T05:00:32;17.10;91.80
62581;DHT22;48640;48.770;9.148;2023-07-31T05:02:58;17.10;91.80
62581;DHT22;48640;48.770;9.148;2023-07-31T05:05:25;17.10;92.10
62581;DHT22;48640;48.770;9.148;2023-07-31T05:07:53;17.10;92.20
62581;DHT22;48640;48.770;9.148;2023-07-31T05:10:20;17.10;92.10
62581;DHT22;48640;48.770;9.148;2023-07-31T05:12:47;17.10;92.10
62581;DHT22;48640;48.770;9.148;2023-07-31T05:15:14;17.10;92.20
62581;DHT22;48640;48.770;9.148;2023-07-31T05:17:41;17.10;92.00
62581;DHT22;48640;48.770;9.148;2023-07-31T05:20:08;17.30;92.10
62581;DHT22;48640;48.770;9.148;2023-07-31T05:22:36;17.20;92.10
62581;DHT22;48640;48.770;9.148;2023-07-31T05:25:05;17.20;91.90
62581;DHT22;48640;48.770;9.148;2023-07-31T05:27:32;17.20;92.00
62581;DHT22;48640;48.770;9.148;2023-07-31T05:29:59;17.30;92.00
62581;DHT22;48640;48.770;9.148;2023-07-31T05:32:26;17.30;91.90
62581;DHT22;48640;48.770;9.148;2023-07-31T05:34:53;17.40;91.80
62581;DHT22;48640;48.770;9.148;2023-07-31T05:37:20;17.50;91.70
62581;DHT22;48640;48.770;9.148;2023-07-31T05:39:46;17.80;91.60
62581;DHT22;48640;48.770;9.148;2023-07-31T05:42:15;18.20;90.70
62581;DHT22;48640;48.770;9.148;2023-07-31T05:44:41;18.50;90.20
62581;DHT22;48640;48.770;9.148;2023-07-31T05:47:09;18.90;90.10
62581;DHT22;48640;48.770;9.148;2023-07-31T05:49:35;19.00;87.90
62581;DHT22;48640;48.770;9.148;2023-07-31T05:52:03;19.10;87.20
62581;DHT22;48640;48.770;9.148;2023-07-31T05:54:30;19.20;86.80
62581;DHT22;48640;48.770;9.148;2023-07-31T05:56:56;19.40;86.20
62581;DHT22;48640;48.770;9.148;2023-07-31T05:59:24;19.50;85.50
62581;DHT22;48640;48.770;9.148;2023-07-31T06:01:51;19.70;85.70
62581;DHT22;48640;48.770;9.148;2023-07-31T06:04:18;20.10;83.30
62581;DHT22;48640;48.770;9.148;2023-07-31T06:06:45;20.30;82.60
62581;DHT22;48640;48.770;9.148;2023-07-31T06:09:11;20.70;82.50
62581;DHT22;48640;48.770;9.148;2023-07-31T06:11:39;21.00;81.00
62581;DHT22;48640;48.770;9.148;2023-07-31T06:14:06;21.20;78.40
62581;DHT22;48640;48.770;9.148;2023-07-31T06:16:34;21.20;76.70
62581;DHT22;48640;48.770;9.148;2023-07-31T06:19:01;21.20;75.60
62581;DHT22;48640;48.770;9.148;2023-07-31T06:21:28;21.20;76.30
62581;DHT22;48640;48.770;9.148;2023-07-31T06:23:55;21.50;76.40
62581;DHT22;48640;48.770;9.148;2023-07-31T06:26:22;21.60;76.20
62581;DHT22;48640;48.770;9.148;2023-07-31T06:28:48;21.70;74.70
62581;DHT22;48640;48.770;9.148;2023-07-31T06:31:15;21.70;72.30
62581;DHT22;48640;48.770;9.148;2023-07-31T06:33:47;21.80;74.30
62581;DHT22;48640;48.770;9.148;2023-07-31T06:36:14;21.90;73.40
62581;DHT22;48640;48.770;9.148;2023-07-31T06:38:40;21.80;71.80
62581;DHT22;48640;48.770;9.148;2023-07-31T06:41:08;21.60;72.10
62581;DHT22;48640;48.770;9.148;2023-07-31T06:43:36;21.30;72.50
62581;DHT22;48640;48.770;9.148;2023-07-31T06:46:05;21.10;73.30
62581;DHT22;48640;48.770;9.148;2023-07-31T06:48:32;21.20;75.50
62581;DHT22;48640;48.770;9.148;2023-07-31T06:51:00;21.40;74.00
62581;DHT22;48640;48.770;9.148;2023-07-31T06:53:28;21.80;74.10
62581;DHT22;48640;48.770;9.148;2023-07-31T06:55:55;22.10;72.50
62581;DHT22;48640;48.770;9.148;2023-07-31T06:58:21;22.20;70.80
62581;DHT22;48640;48.770;9.148;2023-07-31T07:00:48;22.60;69.80
62581;DHT22;48640;48.770;9.148;2023-07-31T07:03:17;22.60;70.00
62581;DHT22;48640;48.770;9.148;2023-07-31T07:05:44;22.80;70.10
62581;DHT22;48640;48.770;9.148;2023-07-31T07:08:12;23.10;69.10
62581;DHT22;48640;48.770;9.148;2023-07-31T07:10:39;23.30;69.20
62581;DHT22;48640;48.770;9.148;2023-07-31T07:13:06;23.30;65.60
62581;DHT22;48640;48.770;9.148;2023-07-31T07:15:33;23.30;64.20
62581;DHT22;48640;48.770;9.148;2023-07-31T07:17:59;23.30;66.40
62581;DHT22;48640;48.770;9.148;2023-07-31T07:20:26;23.40;65.90
62581;DHT22;48640;48.770;9.148;2023-07-31T07:22:53;23.70;63.00
62581;DHT22;48640;48.770;9.148;2023-07-31T07:25:21;23.80;61.50
62581;DHT22;48640;48.770;9.148;2023-07-31T07:27:48;24.10;61.90
62581;DHT22;48640;48.770;9.148;2023-07-31T07:30:15;24.10;60.70
62581;DHT22;48640;48.770;9.148;2023-07-31T07:32:43;24.20;60.40
62581;DHT22;48640;48.770;9.148;2023-07-31T07:35:10;24.00;60.20
62581;DHT22;48640;48.770;9.148;2023-07-31T07:37:36;23.80;61.20
62581;DHT22;48640;48.770;9.148;2023-07-31T07:40:04;23.40;61.80
62581;DHT22;48640;48.770;9.148;2023-07-31T07:42:32;23.00;61.90
62581;DHT22;48640;48.770;9.148;2023-07-31T07:44:59;22.80;64.70
62581;DHT22;48640;48.770;9.148;2023-07-31T07:47:26;23.10;63.70
62581;DHT22;48640;48.770;9.148;2023-07-31T07:49:52;23.40;62.60
62581;DHT22;48640;48.770;9.148;2023-07-31T07:52:19;23.80;60.50
62581;DHT22;48640;48.770;9.148;2023-07-31T07:54:46;24.60;60.10
62581;DHT22;48640;48.770;9.148;2023-07-31T07:57:13;25.50;55.90
62581;DHT22;48640;48.770;9.148;2023-07-31T07:59:41;25.80;55.40
62581;DHT22;48640;48.770;9.148;2023-07-31T08:02:08;26.90;55.00
62581;DHT22;48640;48.770;9.148;2023-07-31T08:04:35;27.70;51.00
62581;DHT22;48640;48.770;9.148;2023-07-31T08:07:02;28.10;49.20
62581;DHT22;48640;48.770;9.148;2023-07-31T08:09:29;28.30;49.40
62581;DHT22;48640;48.770;9.148;2023-07-31T08:11:56;28.70;47.90
62581;DHT22;48640;48.770;9.148;2023-07-31T08:14:27;29.30;46.60
62581;DHT22;48640;48.770;9.148;2023-07-31T08:16:55;29.50;45.10
62581;DHT22;48640;48.770;9.148;2023-07-31T08:19:22;29.50;44.60
62581;DHT22;48640;48.770;9.148;2023-07-31T08:21:49;29.40;43.80
62581;DHT22;48640;48.770;9.148;2023-07-31T08:24:16;29.50;43.50
62581;DHT22;48640;48.770;9.148;2023-07-31T08:26:43;29.80;44.10
62581;DHT22;48640;48.770;9.148;2023-07-31T08:29:09;29.70;43.00
62581;DHT22;48640;48.770;9.148;2023-07-31T08:31:36;29.30;44.60
62581;DHT22;48640;48.770;9.148;2023-07-31T08:34:04;29.50;43.40
62581;DHT22;48640;48.770;9.148;2023-07-31T08:36:31;29.60;43.10
62581;DHT22;48640;48.770;9.148;2023-07-31T08:38:58;28.80;43.50
62581;DHT22;48640;48.770;9.148;2023-07-31T08:41:25;28.10;44.40
62581;DHT22;48640;48.770;9.148;2023-07-31T08:43:53;27.80;46.40
62581;DHT22;48640;48.770;9.148;2023-07-31T08:46:21;27.70;45.30
62581;DHT22;48640;48.770;9.148;2023-07-31T08:48:49;28.30;46.50
62581;DHT22;48640;48.770;9.148;2023-07-31T08:51:19;28.70;44.60
62581;DHT22;48640;48.770;9.148;2023-07-31T08:53:46;29.40;43.80
62581;DHT22;48640;48.770;9.148;2023-07-31T08:56:13;29.80;44.70
62581;DHT22;48640;48.770;9.148;2023-07-31T08:58:42;31.10;41.70
62581;DHT22;48640;48.770;9.148;2023-07-31T09:01:09;31.80;39.10
62581;DHT22;48640;48.770;9.148;2023-07-31T09:03:38;31.30;38.30
62581;DHT22;48640;48.770;9.148;2023-07-31T09:06:05;29.80;40.70
62581;DHT22;48640;48.770;9.148;2023-07-31T09:08:34;29.30;41.70
62581;DHT22;48640;48.770;9.148;2023-07-31T09:11:02;28.90;43.00
62581;DHT22;48640;48.770;9.148;2023-07-31T09:13:31;29.10;42.50
62581;DHT22;48640;48.770;9.148;2023-07-31T09:15:58;29.20;43.90
62581;DHT22;48640;48.770;9.148;2023-07-31T09:18:25;29.50;43.70
62581;DHT22;48640;48.770;9.148;2023-07-31T09:21:02;29.80;42.10
62581;DHT22;48640;48.770;9.148;2023-07-31T09:23:42;29.30;43.30
62581;DHT22;48640;48.770;9.148;2023-07-31T09:26:09;28.80;43.40
62581;DHT22;48640;48.770;9.148;2023-07-31T09:28:36;27.60;44.80
62581;DHT22;48640;48.770;9.148;2023-07-31T09:31:03;26.60;46.90
62581;DHT22;48640;48.770;9.148;2023-07-31T09:33:30;25.70;48.90
62581;DHT22;48640;48.770;9.148;2023-07-31T09:35:59;25.10;51.00
62581;DHT22;48640;48.770;9.148;2023-07-31T09:38:26;24.40;51.70
62581;DHT22;48640;48.770;9.148;2023-07-31T09:40:55;23.90;53.80
62581;DHT22;48640;48.770;9.148;2023-07-31T09:43:25;23.70;54.60
62581;DHT22;48640;48.770;9.148;2023-07-31T09:45:55;23.60;55.70
62581;DHT22;48640;48.770;9.148;2023-07-31T09:48:23;23.40;56.80
62581;DHT22;48640;48.770;9.148;2023-07-31T09:50:53;24.00;56.40
62581;DHT22;48640;48.770;9.148;2023-07-31T09:53:28;25.50;54.30
62581;DHT22;48640;48.770;9.148;2023-07-31T09:55:58;27.60;49.60
62581;DHT22;48640;48.770;9.148;2023-07-31T09:58:28;29.10;45.10
62581;DHT22;48640;48.770;9.148;2023-07-31T10:00:57;29.30;43.20
62581;DHT22;48640;48.770;9.148;2023-07-31T10:03:25;28.70;43.90
62581;DHT22;48640;48.770;9.148;2023-07-31T10:05:53;27.70;45.20
62581;DHT22;48640;48.770;9.148;2023-07-31T10:08:22;27.10;46.90
62581;DHT22;48640;48.770;9.148;2023-07-31T10:10:50;27.20;48.90
62581;DHT22;48640;48.770;9.148;2023-07-31T10:13:18;27.70;46.30
62581;DHT22;48640;48.770;9.148;2023-07-31T10:15:47;27.40;46.40
62581;DHT22;48640;48.770;9.148;2023-07-31T10:18:15;27.00;47.20
62581;DHT22;48640;48.770;9.148;2023-07-31T10:20:44;26.30;48.60
62581;DHT22;48640;48.770;9.148;2023-07-31T10:23:12;25.70;49.50
62581;DHT22;48640;48.770;9.148;2023-07-31T10:25:39;24.80;50.70
62581;DHT22;48640;48.770;9.148;2023-07-31T10:28:06;24.40;52.40
62581;DHT22;48640;48.770;9.148;2023-07-31T10:30:36;24.20;53.20
62581;DHT22;48640;48.770;9.148;2023-07-31T10:33:03;24.30;53.00
62581;DHT22;48640;48.770;9.148;2023-07-31T10:35:31;24.40;53.70
62581;DHT22;48640;48.770;9.148;2023-07-31T10:38:09;24.60;52.80
62581;DHT22;48640;48.770;9.148;2023-07-31T10:40:36;25.00;53.70
62581;DHT22;48640;48.770;9.148;2023-07-31T10:43:03;25.40;52.00
62581;DHT22;48640;48.770;9.148;2023-07-31T10:45:36;25.40;51.60
62581;DHT22;48640;48.770;9.148;2023-07-31T10:48:03;25.70;51.50
62581;DHT22;48640;48.770;9.148;2023-07-31T10:50:31;25.70;50.00
62581;DHT22;48640;48.770;9.148;2023-07-31T10:52:59;25.80;50.80
62581;DHT22;48640;48.770;9.148;2023-07-31T10:55:29;25.50;50.50
62581;DHT22;48640;48.770;9.148;2023-07-31T10:57:57;25.50;51.50
62581;DHT22;48640;48.770;9.148;2023-07-31T11:00:26;25.50;53.00
62581;DHT22;48640;48.770;9.148;2023-07-31T11:03:02;26.00;51.10
62581;DHT22;48640;48.770;9.148;2023-07-31T11:06:00;26.30;49.40
62581;DHT22;48640;48.770;9.148;2023-07-31T11:08:29;25.70;49.70
62581;DHT22;48640;48.770;9.148;2023-07-31T11:11:06;25.50;51.70
62581;DHT22;48640;48.770;9.148;2023-07-31T11:13:39;25.40;50.80
62581;DHT22;48640;48.770;9.148;2023-07-31T11:16:06;25.30;51.30
62581;DHT22;48640;48.770;9.148;2023-07-31T11:18:35;25.40;51.30
62581;DHT22;48640;48.770;9.148;2023-07-31T11:21:02;25.90;50.00
62581;DHT22;48640;48.770;9.148;2023-07-31T11:23:29;26.70;49.90
62581;DHT22;48640;48.770;9.148;2023-07-31T11:25:59;27.40;48.70
62581;DHT22;48640;48.770;9.148;2023-07-31T11:28:31;28.70;46.30
62581;DHT22;48640;48.770;9.148;2023-07-31T11:30:59;29.30;43.80
62581;DHT22;48640;48.770;9.148;2023-07-31T11:33:26;29.10;44.30
62581;DHT22;48640;48.770;9.148;2023-07-31T11:35:54;28.60;44.90
62581;DHT22;48640;48.770;9.148;2023-07-31T11:38:21;27.80;45.80
62581;DHT22;48640;48.770;9.148;2023-07-31T11:40:49;27.20;49.20
62581;DHT22;48640;48.770;9.148;2023-07-31T11:43:16;27.00;49.70
62581;DHT22;48640;48.770;9.148;2023-07-31T11:45:45;26.90;48.50
62581;DHT22;48640;48.770;9.148;2023-07-31T11:48:19;26.90;48.80
62581;DHT22;48640;48.770;9.148;2023-07-31T11:50:47;26.90;50.00
62581;DHT22;48640;48.770;9.148;2023-07-31T11:53:18;27.00;48.70
62581;DHT22;48640;48.770;9.148;2023-07-31T11:55:46;26.80;49.80
62581;DHT22;48640;48.770;9.148;2023-07-31T11:58:15;26.70;49.50
62581;DHT22;48640;48.770;9.148;2023-07-31T12:00:43;26.40;49.20
62581;DHT22;48640;48.770;9.148;2023-07-31T12:03:10;26.30;49.70
62581;DHT22;48640;48.770;9.148;2023-07-31T12:05:37;25.90;51.30
62581;DHT22;48640;48.770;9.148;2023-07-31T12:08:10;25.80;52.80
62581;DHT22;48640;48.770;9.148;2023-07-31T12:10:39;26.00;52.30
62581;DHT22;48640;48.770;9.148;2023-07-31T12:13:08;26.00;52.20
62581;DHT22;48640;48.770;9.148;2023-07-31T12:15:38;25.90;52.50
62581;DHT22;48640;48.770;9.148;2023-07-31T12:18:06;25.80;50.60
62581;DHT22;48640;48.770;9.148;2023-07-31T12:20:34;25.60;51.80
62581;DHT22;48640;48.770;9.148;2023-07-31T12:23:01;25.30;52.00
62581;DHT22;48640;48.770;9.148;2023-07-31T12:25:32;25.10;54.50
62581;DHT22;48640;48.770;9.148;2023-07-31T12:28:05;24.80;56.10
62581;DHT22;48640;48.770;9.148;2023-07-31T12:30:37;24.80;54.10
62581;DHT22;48640;48.770;9.148;2023-07-31T12:33:05;24.70;54.40
62581;DHT22;48640;48.770;9.148;2023-07-31T12:35:40;24.70;55.20
62581;DHT22;48640;48.770;9.148;2023-07-31T12:38:07;24.60;54.40
62581;DHT22;48640;48.770;9.148;2023-07-31T12:40:37;24.50;54.20
62581;DHT22;48640;48.770;9.148;2023-07-31T12:43:05;24.30;55.30
62581;DHT22;48640;48.770;9.148;2023-07-31T12:45:32;24.30;55.00
62581;DHT22;48640;48.770;9.148;2023-07-31T12:47:59;24.10;54.80
62581;DHT22;48640;48.770;9.148;2023-07-31T12:50:27;23.90;54.50
62581;DHT22;48640;48.770;9.148;2023-07-31T12:52:54;23.70;55.80
62581;DHT22;48640;48.770;9.148;2023-07-31T12:55:21;23.70;56.20
62581;DHT22;48640;48.770;9.148;2023-07-31T12:57:48;23.60;55.90
62581;DHT22;48640;48.770;9.148;2023-07-31T13:00:16;23.60;56.80
62581;DHT22;48640;48.770;9.148;2023-07-31T13:02:43;23.80;55.80
62581;DHT22;48640;48.770;9.148;2023-07-31T13:05:10;23.70;56.30
62581;DHT22;48640;48.770;9.148;2023-07-31T13:07:38;24.00;56.70
62581;DHT22;48640;48.770;9.148;2023-07-31T13:10:06;24.30;56.30
62581;DHT22;48640;48.770;9.148;2023-07-31T13:12:33;24.40;56.70
62581;DHT22;48640;48.770;9.148;2023-07-31T13:15:00;24.50;56.30
62581;DHT22;48640;48.770;9.148;2023-07-31T13:17:28;24.60;55.50
62581;DHT22;48640;48.770;9.148;2023-07-31T13:19:55;24.50;56.80
62581;DHT22;48640;48.770;9.148;2023-07-31T13:22:22;24.60;55.60
62581;DHT22;48640;48.770;9.148;2023-07-31T13:24:48;24.80;55.00
62581;DHT22;48640;48.770;9.148;2023-07-31T13:27:15;24.80;54.40
62581;DHT22;48640;48.770;9.148;2023-07-31T13:29:44;25.10;54.60
62581;DHT22;48640;48.770;9.148;2023-07-31T13:32:11;25.40;55.10
62581;DHT22;48640;48.770;9.148;2023-07-31T13:34:39;25.50;53.70
62581;DHT22;48640;48.770;9.148;2023-07-31T13:37:06;25.60;53.30
62581;DHT22;48640;48.770;9.148;2023-07-31T13:39:32;25.90;53.30
62581;DHT22;48640;48.770;9.148;2023-07-31T13:41:59;25.90;53.40
62581;DHT22;48640;48.770;9.148;2023-07-31T13:44:26;25.80;54.30
62581;DHT22;48640;48.770;9.148;2023-07-31T13:46:53;25.70;54.20
62581;DHT22;48640;48.770;9.148;2023-07-31T13:49:20;25.70;52.90
62581;DHT22;48640;48.770;9.148;2023-07-31T13:51:48;25.80;53.30
62581;DHT22;48640;48.770;9.148;2023-07-31T13:54:15;25.70;52.80
62581;DHT22;48640;48.770;9.148;2023-07-31T13:56:42;25.70;52.30
62581;DHT22;48640;48.770;9.148;2023-07-31T13:59:10;25.50;53.60
62581;DHT22;48640;48.770;9.148;2023-07-31T14:01:36;25.40;53.80
62581;DHT22;48640;48.770;9.148;2023-07-31T14:04:03;25.50;55.20
62581;DHT22;48640;48.770;9.148;2023-07-31T14:06:30;25.30;54.20
62581;DHT22;48640;48.770;9.148;2023-07-31T14:08:58;25.20;54.50
62581;DHT22;48640;48.770;9.148;2023-07-31T14:11:26;25.00;55.30
62581;DHT22;48640;48.770;9.148;2023-07-31T14:13:53;25.00;55.00
62581;DHT22;48640;48.770;9.148;2023-07-31T14:16:19;25.00;55.20
62581;DHT22;48640;48.770;9.148;2023-07-31T14:18:47;24.90;54.90
62581;DHT22;48640;48.770;9.148;2023-07-31T14:21:14;24.90;55.20
62581;DHT22;48640;48.770;9.148;2023-07-31T14:23:41;24.80;55.50
62581;DHT22;48640;48.770;9.148;2023-07-31T14:26:09;24.80;55.20
62581;DHT22;48640;48.770;9.148;2023-07-31T14:28:36;24.80;55.70
62581;DHT22;48640;48.770;9.148;2023-07-31T14:31:03;24.80;56.40
62581;DHT22;48640;48.770;9.148;2023-07-31T14:33:29;25.00;55.40
62581;DHT22;48640;48.770;9.148;2023-07-31T14:35:56;24.90;55.70
62581;DHT22;48640;48.770;9.148;2023-07-31T14:38:23;24.90;55.70
62581;DHT22;48640;48.770;9.148;2023-07-31T14:40:50;24.90;57.00
62581;DHT22;48640;48.770;9.148;2023-07-31T14:43:19;24.90;55.80
62581;DHT22;48640;48.770;9.148;2023-07-31T14:45:46;24.80;56.00
62581;DHT22;48640;48.770;9.148;2023-07-31T14:48:12;24.90;57.70
62581;DHT22;48640;48.770;9.148;2023-07-31T14:50:39;25.00;56.90
62581;DHT22;48640;48.770;9.148;2023-07-31T14:53:06;25.10;56.60
62581;DHT22;48640;48.770;9.148;2023-07-31T14:55:33;25.30;56.10
62581;DHT22;48640;48.770;9.148;2023-07-31T14:58:00;25.40;55.30
62581;DHT22;48640;48.770;9.148;2023-07-31T15:00:28;25.60;55.50
62581;DHT22;48640;48.770;9.148;2023-07-31T15:02:54;25.50;54.30
62581;DHT22;48640;48.770;9.148;2023-07-31T15:05:21;25.40;54.70
62581;DHT22;48640;48.770;9.148;2023-07-31T15:07:48;25.30;54.50
62581;DHT22;48640;48.770;9.148;2023-07-31T15:10:15;25.50;54.50
62581;DHT22;48640;48.770;9.148;2023-07-31T15:12:42;25.20;54.40
62581;DHT22;48640;48.770;9.148;2023-07-31T15:15:09;25.10;55.80
62581;DHT22;48640;48.770;9.148;2023-07-31T15:17:37;25.20;54.10
62581;DHT22;48640;48.770;9.148;2023-07-31T15:20:05;25.00;54.40
62581;DHT22;48640;48.770;9.148;2023-07-31T15:22:32;24.90;55.40
62581;DHT22;48640;48.770;9.148;2023-07-31T15:24:59;25.00;55.60
62581;DHT22;48640;48.770;9.148;2023-07-31T15:27:25;24.90;55.70
62581;DHT22;48640;48.770;9.148;2023-07-31T15:29:52;24.90;55.70
62581;DHT22;48640;48.770;9.148;2023-07-31T15:32:19;24.90;56.10